Flight Track Log - Related Links

Times and Time Zones

All times are in EDT time to prevent confusion due to time zone crossing. See the CCA4393 flight status page for this flight to view local times or setup timezone preferences in your user account.

Time Position Orientation Groundspeed Altitude Reporting Facility
EDT Latitude Longitude Course Direction KTS MPH feet Rate Location/Type
Fri 08:07:00 PM 32.6195 103.9573 136° Southeast  Level Estimated
Fri 08:08:00 PM 32.5401 104.0484 136° Southeast  Level Estimated
Fri 08:09:00 PM 32.4608 104.1393 136° Southeast  Level Estimated
Fri 08:10:00 PM 32.3813 104.2301 136° Southeast  Level Estimated
Fri 08:11:00 PM 32.3018 104.3207 136° Southeast  Level Estimated
Fri 08:12:00 PM 32.2223 104.4112 136° Southeast  Level Estimated
Fri 08:13:00 PM 32.1426 104.5015 136° Southeast  Level Estimated
Fri 08:14:00 PM 32.0629 104.5916 136° Southeast  Level Estimated
Fri 08:14:58 PM 32.6040 104.1420 136° Southeast 474 545 28,000  Level FlightAware ADS-B
Fri 08:15:00 PM 31.9831 104.6816 136° Southeast  Level Estimated
Fri 08:15:34 PM 32.5260 104.1520 174° South 477 549 28,900  Level FlightAware ADS-B
Fri 08:16:14 PM 32.4380 104.1640 173° South 473 544 30,200 1,610 Climbing FlightAware ADS-B
Fri 08:16:56 PM 32.3460 104.1770 173° South 479 551 31,100 711 Climbing FlightAware ADS-B
Fri 08:17:30 PM 32.2720 104.1870 173° South 477 549 31,100  Level FlightAware ADS-B
Fri 08:18:05 PM 32.2280 104.1940 172° South 477 549 31,100  Level FlightAware ADS-B
Fri 08:18:57 PM 32.0840 104.2160 173° South 479 551 31,100  Level FlightAware ADS-B
Fri 08:19:36 PM 31.9960 104.2280 173° South 477 549 31,100  Level FlightAware ADS-B
Fri 08:20:19 PM 31.9020 104.2420 173° South 477 549 31,100  Level FlightAware ADS-B
Fri 08:21:02 PM 31.8070 104.2560 173° South 478 550 31,100 74 Level FlightAware ADS-B
Fri 08:21:40 PM 31.7230 104.2680 173° South 480 552 31,200 1,000 Climbing FlightAware ADS-B
Fri 08:22:26 PM 31.6240 104.2820 173° South 480 552 32,500 1,326 Climbing FlightAware ADS-B
Fri 08:23:06 PM 31.5330 104.2960 173° South 477 549 33,100 429 Climbing FlightAware ADS-B
Fri 08:23:50 PM 31.4350 104.3100 173° South 477 549 33,100  Level FlightAware ADS-B
Fri 08:24:30 PM 31.3480 104.3220 173° South 476 548 33,100  Level FlightAware ADS-B
Fri 08:25:10 PM 31.2610 104.3350 173° South 476 548 33,100  Level FlightAware ADS-B
Fri 08:25:54 PM 31.1640 104.3490 173° South 476 548 33,100  Level FlightAware ADS-B
Fri 08:26:38 PM 31.0670 104.3630 173° South 476 548 33,100  Level FlightAware ADS-B
Fri 08:27:20 PM 30.9750 104.3760 173° South 477 549 33,100  Level FlightAware ADS-B
Fri 08:28:00 PM 30.8880 104.3900 172° South 478 550 33,100  Level FlightAware ADS-B
Fri 08:28:42 PM 30.8110 104.4130 166° South 480 552 33,100  Level FlightAware ADS-B
Fri 08:29:19 PM 30.7210 104.4480 162° South 480 552 33,100  Level FlightAware ADS-B
Fri 08:29:58 PM 30.6540 104.4740 162° South 480 552 33,100  Level FlightAware ADS-B
Fri 08:30:41 PM 30.5470 104.5150 162° South 480 552 33,100  Level FlightAware ADS-B
Fri 08:31:16 PM 30.4720 104.5430 162° South 479 551 33,100  Level FlightAware ADS-B
Fri 08:32:04 PM 30.3710 104.5820 162° South 477 549 33,100  Level FlightAware ADS-B
Fri 08:32:48 PM 30.2800 104.6160 162° South 477 549 33,100  Level FlightAware ADS-B
Fri 08:33:28 PM 30.1950 104.6480 162° South 476 548 33,100  Level FlightAware ADS-B
Fri 08:34:08 PM 30.1110 104.6800 162° South 474 545 33,100  Level FlightAware ADS-B
Fri 08:34:52 PM 30.0200 104.7100 164° South 474 545 33,100  Level FlightAware ADS-B
Fri 08:35:28 PM 29.9390 104.7070 182° South 475 547 33,100  Level FlightAware ADS-B
Fri 08:36:29 PM 29.8240 104.7280 171° South 477 549 33,100  Level FlightAware ADS-B
Fri 08:37:17 PM 29.7360 104.7500 168° South 477 549 33,100  Level FlightAware ADS-B
Fri 08:37:54 PM 29.6680 104.7660 168° South 477 549 33,100  Level FlightAware ADS-B
Fri 08:38:30 PM 29.6020 104.7820 168° South 477 549 33,100  Level FlightAware ADS-B
Fri 08:39:06 PM 29.5360 104.7990 167° South 477 549 33,100  Level FlightAware ADS-B
Fri 08:39:54 PM 29.4470 104.8200 168° South 477 549 33,100  Level FlightAware ADS-B
Fri 08:40:28 PM 29.3850 104.8350 168° South 477 549 33,100  Level FlightAware ADS-B
Fri 08:41:21 PM 29.2880 104.8590 168° South 477 549 33,100  Level FlightAware ADS-B
Fri 08:41:32 PM 29.1770 104.8850 168° South 461 531 33,100  Level FlightAware ADS-B
Fri 08:42:16 PM 29.0880 104.8540 197° South 462 532 33,100  Level FlightAware ADS-B
Fri 08:42:56 PM 29.0050 104.8250 197° South 464 534 33,100  Level FlightAware ADS-B
Fri 08:43:29 PM 28.9400 104.8020 197° South 466 536 33,100  Level FlightAware ADS-B
Fri 08:44:07 PM 28.8650 104.7870 190° South 469 540 33,100 61 Level FlightAware ADS-B
Fri 08:45:07 PM 28.7470 104.8330 161° South 472 543 33,200  Climbing FlightAware ADS-B
Fri 08:45:50 PM 28.6680 104.9150 138° Southeast 470 541 33,100 -74 Descending FlightAware ADS-B
Fri 08:46:28 PM 28.6070 104.9770 138° Southeast 454 522 33,100  Level FlightAware ADS-B
Fri 08:47:08 PM 28.5470 105.0390 138° Southeast 450 518 33,100  Level FlightAware ADS-B
Fri 08:47:57 PM 28.4800 105.1090 137° Southeast 451 519 33,100  Level FlightAware ADS-B
Fri 08:48:36 PM 28.4290 105.1630 137° Southeast 451 519 33,100  Level FlightAware ADS-B
Fri 08:49:24 PM 28.3670 105.2290 137° Southeast 451 519 33,100  Level FlightAware ADS-B
Fri 08:50:01 PM 28.3190 105.2800 137° Southeast 451 519 33,100  Level FlightAware ADS-B
Fri 08:51:01 PM 28.2410 105.3620 137° Southeast 451 519 33,100  Level FlightAware ADS-B
Fri 08:51:36 PM 28.1950 105.4100 137° Southeast 451 519 33,100  Level FlightAware ADS-B
Fri 08:52:47 PM 28.1030 105.5080 137° Southeast 451 519 33,100  Level FlightAware ADS-B
Fri 08:53:23 PM 28.0570 105.5570 137° Southeast 451 519 33,100  Level FlightAware ADS-B
Fri 08:54:11 PM 27.9940 105.6230 137° Southeast 451 519 33,100  Level FlightAware ADS-B
Fri 08:54:47 PM 27.9480 105.6720 137° Southeast 451 519 33,100  Level FlightAware ADS-B
Fri 08:55:35 PM 27.8850 105.7380 137° Southeast 451 519 33,100  Level FlightAware ADS-B
Fri 08:56:11 PM 27.8390 105.7870 137° Southeast 451 519 33,100  Level FlightAware ADS-B
Fri 08:57:00 PM 27.7750 105.8540 137° Southeast 451 519 33,100  Level FlightAware ADS-B
Fri 08:59:00 PM 27.6596 106.0666 121° Southeast  Level Estimated
Fri 09:00:00 PM 27.6017 106.1727 122° Southeast  Level Estimated
Fri 09:01:00 PM 27.5438 106.2787 122° Southeast  Level Estimated
Fri 09:02:00 PM 27.4858 106.3846 122° Southeast  Level Estimated
Fri 09:03:00 PM 27.4277 106.4904 122° Southeast  Level Estimated
Fri 09:04:00 PM 27.3696 106.5960 122° Southeast  Level Estimated
Fri 09:05:00 PM 27.3113 106.7016 122° Southeast  Level Estimated
Fri 09:06:00 PM 27.2530 106.8070 122° Southeast  Level Estimated
Fri 09:07:00 PM 27.1946 106.9124 122° Southeast  Level Estimated
Fri 09:08:00 PM 27.1361 107.0176 122° Southeast  Level Estimated
Fri 09:09:00 PM 27.0776 107.1227 122° Southeast  Level Estimated
Fri 09:10:00 PM 27.0189 107.2277 122° Southeast  Level Estimated
Fri 09:11:00 PM 26.9602 107.3326 122° Southeast  Level Estimated
Fri 09:12:00 PM 26.9014 107.4374 122° Southeast  Level Estimated
Fri 09:13:00 PM 26.8426 107.5421 122° Southeast  Level Estimated
Fri 09:14:00 PM 26.7836 107.6467 122° Southeast  Level Estimated
Fri 09:15:00 PM 26.7246 107.7511 122° Southeast  Level Estimated
Fri 09:16:00 PM 26.6655 107.8555 122° Southeast  Level Estimated
Fri 09:17:00 PM 26.6063 107.9597 122° Southeast  Level Estimated
Fri 09:18:00 PM 26.5471 108.0639 122° Southeast  Level Estimated
Fri 09:19:00 PM 26.4878 108.1679 122° Southeast  Level Estimated
Fri 09:20:00 PM 26.4284 108.2718 123° Southeast  Level Estimated
Fri 09:21:00 PM 26.3689 108.3756 123° Southeast  Level Estimated
Fri 09:22:00 PM 26.3093 108.4793 123° Southeast  Level Estimated
Fri 09:23:00 PM 26.2497 108.5829 123° Southeast  Level Estimated
Fri 09:24:00 PM 26.1900 108.6864 123° Southeast  Level Estimated
Fri 09:25:00 PM 26.1303 108.7898 123° Southeast  Level Estimated
Fri 09:26:00 PM 26.0704 108.8931 123° Southeast  Level Estimated
Fri 09:27:00 PM 26.0105 108.9963 123° Southeast  Level Estimated
Fri 09:28:00 PM 25.9505 109.0993 123° Southeast  Level Estimated
Fri 09:29:00 PM 25.8904 109.2023 123° Southeast  Level Estimated
Fri 09:30:00 PM 25.8303 109.3052 123° Southeast  Level Estimated
Fri 09:31:00 PM 25.7701 109.4079 123° Southeast  Level Estimated
Fri 09:32:00 PM 25.7098 109.5106 123° Southeast  Level Estimated
Fri 09:33:00 PM 25.6495 109.6131 123° Southeast  Level Estimated
Fri 09:34:00 PM 25.5891 109.7156 123° Southeast  Level Estimated
Fri 09:35:00 PM 25.5285 109.8179 123° Southeast  Level Estimated
Fri 09:36:00 PM 25.4680 109.9202 123° Southeast  Level Estimated
Fri 09:37:00 PM 25.4073 110.0223 123° Southeast  Level Estimated
Fri 09:38:00 PM 25.3466 110.1243 123° Southeast  Level Estimated
Fri 09:38:02 PM 24.8960 110.4630 123° Southeast 456 525 33,100  Level FlightAware ADS-B
Fri 09:39:00 PM 25.2859 110.2263 123° Southeast  Level Estimated
Fri 09:39:06 PM 24.7980 110.5670 136° Southeast 458 527 33,100  Level FlightAware ADS-B
Fri 09:40:06 PM 24.7070 110.6620 137° Southeast 454 522 33,200 67 Climbing FlightAware ADS-B
Fri 09:40:35 PM 24.6680 110.7030 136° Southeast 454 522 33,200 -70 Level FlightAware ADS-B
Fri 09:41:32 PM 24.5890 110.7860 136° Southeast 451 519 33,100 -55 Descending FlightAware ADS-B
Fri 09:42:24 PM 24.5010 110.8820 135° Southeast 451 519 33,100  Level FlightAware ADS-B
Fri 09:43:04 PM 24.4410 110.9460 136° Southeast 449 517 33,100  Level FlightAware ADS-B
Fri 09:43:51 PM 24.3710 111.0210 136° Southeast 450 518 33,100  Level FlightAware ADS-B
Fri 09:44:47 PM 24.2880 111.1110 135° Southeast 449 517 33,100  Level FlightAware ADS-B
Fri 09:45:43 PM 24.2080 111.1960 136° Southeast 449 517 33,100  Level FlightAware ADS-B
Fri 09:46:23 PM 24.1520 111.2570 135° Southeast 449 517 33,100 -795 Level FlightAware ADS-B
Fri 09:47:06 PM 24.0820 111.3320 136° Southeast 448 516 32,000 -1,747 Descending FlightAware ADS-B
Fri 09:47:42 PM 24.0270 111.3910 136° Southeast 453 521 30,800 -2,077 Descending FlightAware ADS-B
Fri 09:48:24 PM 23.9640 111.4590 135° Southeast 458 527 29,300 -2,047 Descending FlightAware ADS-B
Fri 09:49:07 PM 23.9010 111.5270 135° Southeast 447 514 27,900 -1,275 Descending FlightAware ADS-B
Fri 09:49:44 PM 23.8530 111.5790 135° Southeast 444 511 27,600 -1,040 Descending FlightAware ADS-B
Fri 09:50:22 PM 23.7930 111.6440 135° Southeast 438 504 26,600 -651 Descending FlightAware ADS-B
Fri 09:51:07 PM 23.7330 111.7080 136° Southeast 393 452 26,700 73 Climbing FlightAware ADS-B
Fri 09:51:44 PM 23.6920 111.7520 135° Southeast 393 452 26,700 -474 Level FlightAware ADS-B
Fri 09:52:23 PM 23.6350 111.8120 136° Southeast 382 440 26,100 -882 Descending FlightAware ADS-B
Fri 09:53:26 PM 23.5550 111.8970 136° Southeast 374 430 25,200 -941 Descending FlightAware ADS-B
Fri 09:54:05 PM 23.5060 111.9490 136° Southeast 371 427 24,500 -1,135 Descending FlightAware ADS-B
Fri 09:54:40 PM 23.4640 111.9940 135° Southeast 368 423 23,800 -608 Descending FlightAware ADS-B
Fri 09:55:24 PM 23.4190 112.0430 135° Southeast 368 423 23,700 -75 Descending FlightAware ADS-B
Fri 09:56:00 PM 23.3820 112.0830 135° Southeast 368 423 23,700 -2,341 Level FlightAware ADS-B
Fri 09:56:46 PM 23.3270 112.1640 126° Southeast 348 400 20,500 -2,933 Descending FlightAware ADS-B
Fri 09:57:30 PM 23.2840 112.2180 131° Southeast 342 394 19,300 -1,744 Descending FlightAware ADS-B
Fri 09:58:12 PM 23.2380 112.2770 130° Southeast 336 387 18,000 -1,884 Descending FlightAware ADS-B
Fri 09:58:56 PM 23.1910 112.3360 131° Southeast 333 383 16,600 -1,857 Descending FlightAware ADS-B
Fri 09:59:36 PM 23.1510 112.3860 131° Southeast 331 381 15,400 -1,800 Descending FlightAware ADS-B
Fri 09:59:56 PM 23.1310 112.4110 131° Southeast 329 379 14,800 -623 Descending FlightAware ADS-B
Fri 10:00:53 PM 23.0840 112.4710 130° Southeast 329 379 14,600 -1,189 Descending FlightAware ADS-B
Fri 10:01:42 PM 23.0690 112.5570 101° East 304 350 12,700 -1,744 Descending FlightAware ADS-B
Fri 10:02:19 PM 23.0700 112.6120 89° East 304 350 12,100 -659 Descending FlightAware ADS-B
Fri 10:03:04 PM 23.0700 112.6820 90° East 312 359 11,800 -202 Descending FlightAware ADS-B
Fri 10:03:48 PM 23.0690 112.7490 91° East 311 358 11,800  Level FlightAware ADS-B
Fri 10:04:28 PM 23.0870 112.8080 72° East 324 373 11,800  Level FlightAware ADS-B
Fri 10:05:07 PM 23.1180 112.8570 55° Northeast 321 369 11,800  Level FlightAware ADS-B
Fri 10:05:53 PM 23.1590 112.9200 55° Northeast 321 369 11,800  Level FlightAware ADS-B
Fri 10:06:28 PM 23.1920 112.9690 54° Northeast 322 371 11,800  Level FlightAware ADS-B
Fri 10:06:56 PM 23.2160 113.0050 54° Northeast 324 373 11,800 -783 Level FlightAware ADS-B
Fri 10:07:37 PM 23.2520 113.0580 54° Northeast 327 376 10,900 -805 Descending FlightAware ADS-B
Fri 10:08:18 PM 23.2900 113.1150 54° Northeast 326 375 10,700 -795 Descending FlightAware ADS-B
Fri 10:09:00 PM 23.3300 113.1670 50° Northeast 322 371 9,800 -1,345 Descending FlightAware ADS-B
Fri 10:09:16 PM 23.3500 113.1760 22° Northeast 321 369 9,400 -955 Descending FlightAware ADS-B
Fri 10:09:44 PM 23.3920 113.1850 11° North 302 348 9,100 -667 Descending FlightAware ADS-B
Fri 10:10:10 PM 23.4260 113.1910 North 283 326 8,800 -732 Descending FlightAware ADS-B
Fri 10:10:25 PM 23.4450 113.1940 North 275 316 8,600 -545 Descending FlightAware ADS-B
Fri 10:10:54 PM 23.4810 113.2020 12° North 255 293 8,400 -453 Descending FlightAware ADS-B
Fri 10:11:18 PM 23.5070 113.2080 12° North 239 275 8,200 -300 Descending FlightAware ADS-B
Fri 10:11:54 PM 23.5340 113.2130 10° North 229 264 8,100 -90 Descending FlightAware ADS-B
Fri 10:12:25 PM 23.5730 113.2220 12° North 226 260 8,100  Level FlightAware ADS-B
Fri 10:12:37 PM 23.5830 113.2240 10° North 226 260 8,100 -462 Level FlightAware ADS-B
Fri 10:13:04 PM 23.6170 113.2310 11° North 225 259 7,800 -824 Descending FlightAware ADS-B
Fri 10:13:28 PM 23.6410 113.2370 13° North 222 255 7,400 -947 Descending FlightAware ADS-B
Fri 10:13:42 PM 23.6560 113.2400 10° North 220 253 7,200 -977 Descending FlightAware ADS-B
Fri 10:14:11 PM 23.6840 113.2460 11° North 221 254 6,700 -1,000 Descending FlightAware ADS-B
Fri 10:14:36 PM 23.7090 113.2510 10° North 220 253 6,300 -643 Descending FlightAware ADS-B
Fri 10:15:07 PM 23.7400 113.2570 10° North 220 253 6,100 -200 Descending FlightAware ADS-B
Fri 10:15:36 PM 23.7690 113.2650 14° North 219 252 6,100  Level FlightAware ADS-B
Fri 10:15:48 PM 23.7780 113.2730 39° Northeast 203 234 6,100 -222 Level FlightAware ADS-B
Fri 10:16:03 PM 23.7820 113.2850 70° East 189 217 6,000 -750 Descending FlightAware ADS-B
Fri 10:16:28 PM 23.7800 113.3090 95° East 179 206 5,600 -778 Descending FlightAware ADS-B
Fri 10:16:57 PM 23.7760 113.3310 101° East 178 205 5,300 -667 Descending FlightAware ADS-B
Fri 10:17:13 PM 23.7690 113.3430 123° Southeast 166 191 5,100 -889 Descending FlightAware ADS-B
Fri 10:17:24 PM 23.7580 113.3470 162° South 163 188 4,900 -960 Descending FlightAware ADS-B
Fri 10:17:38 PM 23.7490 113.3490 169° South 164 189 4,700 -789 Descending FlightAware ADS-B
Fri 10:18:02 PM 23.7300 113.3540 166° South 164 189 4,400 -486 Descending FlightAware ADS-B
Fri 10:18:52 PM 23.6970 113.3620 167° South 165 190 4,100 -610 Descending FlightAware ADS-B
Fri 10:20:00 PM 23.6400 113.3550 186° South 171 197 3,200 -563 Descending FlightAware ADS-B
Fri 10:20:28 PM 23.6190 113.3490 195° South 173 199 3,200  Level FlightAware ADS-B
Fri 10:20:58 PM 23.5990 113.3430 195° South 173 199 3,200  Level FlightAware ADS-B
Fri 10:21:25 PM 23.5800 113.3380 194° South 171 197 3,200 -109 Level FlightAware ADS-B
Fri 10:21:53 PM 23.5570 113.3320 193° South 175 201 3,100 -638 Descending FlightAware ADS-B
Fri 10:22:12 PM 23.5380 113.3270 194° South 172 198 2,700 -677 Descending FlightAware ADS-B
Fri 10:22:55 PM 23.5070 113.3190 193° South 171 197 2,400 -419 Descending FlightAware ADS-B
Fri 10:25:00 PM 23.3924 113.2988 189° South  Level Estimated

Login

Don't have an account? Register now (free) for customized features, flight alerts, and more!